createdAt,value
2023-04-19T00:00:36.127Z,73.47
2023-04-19T00:01:36.086Z,74.53
2023-04-19T00:02:36.247Z,74.33
2023-04-19T00:03:36.405Z,74.53
2023-04-19T00:04:36.099Z,73.09
2023-04-19T00:05:36.039Z,73.91
2023-04-19T00:06:36.023Z,73.19
2023-04-19T00:07:36.075Z,73.09
2023-04-19T00:08:36.020Z,73.36
2023-04-19T00:09:36.020Z,72.99
2023-04-19T00:10:36.031Z,72.85
2023-04-19T00:11:35.974Z,72.85
2023-04-19T00:12:35.961Z,72.44
2023-04-19T00:13:35.949Z,72.23
2023-04-19T00:14:35.989Z,72.75
2023-04-19T00:15:35.942Z,72.44
2023-04-19T00:16:35.977Z,72.75
2023-04-19T00:17:35.953Z,71.82
2023-04-19T00:18:35.909Z,71.82
2023-04-19T00:19:35.885Z,71.51
2023-04-19T00:20:35.872Z,71.51
2023-04-19T00:21:35.879Z,71.41
2023-04-19T00:22:35.854Z,71.20
2023-04-19T00:23:35.864Z,71.51
2023-04-19T00:24:35.834Z,71.30
2023-04-19T00:25:35.822Z,70.89
2023-04-19T00:26:35.820Z,70.58
2023-04-19T00:27:35.800Z,70.14
2023-04-19T00:28:35.873Z,70.07
2023-04-19T00:29:35.800Z,70.48
2023-04-19T00:30:35.802Z,70.28
2023-04-19T00:31:35.794Z,70.76
2023-04-19T00:32:35.763Z,69.04
2023-04-19T00:33:35.732Z,70.37
2023-04-19T00:34:35.714Z,70.14
2023-04-19T00:35:35.734Z,69.52
2023-04-19T00:36:35.708Z,68.93
2023-04-19T00:37:35.705Z,69.45
2023-04-19T00:38:35.672Z,69.24
2023-04-19T00:39:35.736Z,69.42
2023-04-19T00:40:35.663Z,69.42
2023-04-19T00:41:35.710Z,69.24
2023-04-19T00:42:36.287Z,69.21
2023-04-19T00:43:35.620Z,69.14
2023-04-19T00:44:35.612Z,69.45
2023-04-19T00:45:35.609Z,69.35
2023-04-19T00:46:35.610Z,69.04
2023-04-19T00:47:35.776Z,69.55
2023-04-19T00:48:35.563Z,69.35
2023-04-19T00:49:35.599Z,69.04
2023-04-19T00:50:35.581Z,69.65
2023-04-19T00:51:35.553Z,69.04
2023-04-19T00:52:35.520Z,69.04
2023-04-19T00:53:35.506Z,69.55
2023-04-19T00:54:35.534Z,69.35
2023-04-19T00:55:35.484Z,68.52
2023-04-19T00:56:35.486Z,70.68
2023-04-19T00:57:35.458Z,70.28
2023-04-19T00:58:35.462Z,69.48
2023-04-19T00:59:36.260Z,69.89
2023-04-19T01:00:35.453Z,70.28
2023-04-19T01:01:35.477Z,70.17
2023-04-19T01:02:35.509Z,69.38
2023-04-19T01:03:35.649Z,69.45
2023-04-19T01:04:35.564Z,69.48
2023-04-19T01:05:35.371Z,69.24
2023-04-19T01:06:35.423Z,69.38
2023-04-19T01:07:35.351Z,69.69
2023-04-19T01:08:35.337Z,69.55
2023-04-19T01:09:35.327Z,69.38
2023-04-19T01:10:35.317Z,69.07
2023-04-19T01:11:35.786Z,70.13
2023-04-19T01:12:35.298Z,70.00
2023-04-19T01:13:35.282Z,69.48
2023-04-19T01:14:35.270Z,69.07
2023-04-19T01:15:35.395Z,70.03
2023-04-19T01:16:35.262Z,70.20
2023-04-19T01:17:35.272Z,69.00
2023-04-19T01:18:35.237Z,70.13
2023-04-19T01:19:35.244Z,70.23
2023-04-19T01:20:35.267Z,70.44
2023-04-19T01:21:35.191Z,70.96
2023-04-19T01:22:35.194Z,70.23
2023-04-19T01:23:35.182Z,70.03
2023-04-19T01:24:35.164Z,69.93
2023-04-19T01:25:35.772Z,70.37
2023-04-19T01:26:35.140Z,70.06
2023-04-19T01:27:35.263Z,70.89
2023-04-19T01:28:35.125Z,70.17
2023-04-19T01:29:35.135Z,70.17
2023-04-19T01:30:35.129Z,70.09
2023-04-19T01:31:35.138Z,70.99
2023-04-19T01:32:35.167Z,70.72
2023-04-19T01:33:35.076Z,70.17
2023-04-19T01:34:35.069Z,70.92
2023-04-19T01:35:35.075Z,70.72
2023-04-19T01:36:35.050Z,70.99
2023-04-19T01:37:35.016Z,70.92
2023-04-19T01:38:35.064Z,69.89
2023-04-19T01:39:35.025Z,71.02
2023-04-19T01:40:35.031Z,70.64
2023-04-19T01:41:35.074Z,70.64
2023-04-19T01:42:34.992Z,70.92
2023-04-19T01:43:35.077Z,70.43
2023-04-19T01:44:34.986Z,71.06
2023-04-19T01:45:35.020Z,71.26
2023-04-19T01:46:35.016Z,70.85
2023-04-19T01:47:34.978Z,70.64
2023-04-19T01:48:34.903Z,71.06
2023-04-19T01:49:34.899Z,71.47
2023-04-19T01:50:34.891Z,71.37
2023-04-19T01:51:34.885Z,71.06
2023-04-19T01:52:34.861Z,71.40
2023-04-19T01:53:34.837Z,70.98
2023-04-19T01:54:34.855Z,71.47
2023-04-19T01:55:34.824Z,71.71
2023-04-19T01:56:34.833Z,71.19
2023-04-19T01:57:34.813Z,71.50
2023-04-19T01:58:34.794Z,71.81
2023-04-19T01:59:34.800Z,72.02
2023-04-19T02:00:34.818Z,71.81
2023-04-19T02:01:34.773Z,72.12
2023-04-19T02:02:34.851Z,72.12
2023-04-19T02:03:34.883Z,72.16
2023-04-19T02:04:34.766Z,72.67
2023-04-19T02:05:34.713Z,72.16
2023-04-19T02:06:34.712Z,72.16
2023-04-19T02:07:34.772Z,72.67
2023-04-19T02:08:34.686Z,72.53
2023-04-19T02:09:34.662Z,72.57
2023-04-19T02:10:34.675Z,72.88
2023-04-19T02:11:34.640Z,72.98
2023-04-19T02:12:34.639Z,72.78
2023-04-19T02:13:34.623Z,73.08
2023-04-19T02:14:34.671Z,72.67
2023-04-19T02:15:34.618Z,72.67
2023-04-19T02:16:36.109Z,72.67
2023-04-19T02:17:34.619Z,72.98
2023-04-19T02:18:34.596Z,73.19
2023-04-19T02:19:34.699Z,72.98
2023-04-19T02:20:34.556Z,73.81
2023-04-19T02:21:34.570Z,73.19
2023-04-19T02:22:34.532Z,73.19
2023-04-19T02:23:34.545Z,73.43
2023-04-19T02:24:34.523Z,74.15
2023-04-19T02:25:34.510Z,73.50
2023-04-19T02:26:35.282Z,73.54
2023-04-19T02:27:34.460Z,73.33
2023-04-19T02:28:34.517Z,73.54
2023-04-19T02:29:34.441Z,74.05
2023-04-19T02:30:34.465Z,75.19
2023-04-19T02:31:34.473Z,74.77
2023-04-19T02:32:34.432Z,74.98
2023-04-19T02:33:34.398Z,75.12
2023-04-19T02:34:34.403Z,74.81
2023-04-19T02:35:34.386Z,75.43
2023-04-19T02:36:34.366Z,75.32
2023-04-19T02:37:34.351Z,75.53
2023-04-19T02:38:34.362Z,75.63
2023-04-19T02:39:34.371Z,75.74
2023-04-19T02:40:34.328Z,75.53
2023-04-19T02:41:34.308Z,75.43
2023-04-19T02:42:34.301Z,76.05
2023-04-19T02:43:34.297Z,75.02
2023-04-19T02:44:34.322Z,75.53
2023-04-19T02:45:34.418Z,75.53
2023-04-19T02:46:34.317Z,75.95
2023-04-19T02:47:34.321Z,75.78
2023-04-19T02:48:34.240Z,75.95
2023-04-19T02:49:34.241Z,75.74
2023-04-19T02:50:34.209Z,76.46
2023-04-19T02:51:34.214Z,76.36
2023-04-19T02:52:34.807Z,76.46
2023-04-19T02:53:34.192Z,76.36
2023-04-19T02:54:34.168Z,76.26
2023-04-19T02:55:34.176Z,77.09
2023-04-19T02:56:34.140Z,77.09
2023-04-19T02:57:34.148Z,76.46
2023-04-19T02:58:34.122Z,76.78
2023-04-19T02:59:34.123Z,76.88
2023-04-19T03:00:34.179Z,77.12
2023-04-19T03:01:34.139Z,76.78
2023-04-19T03:02:34.161Z,76.81
2023-04-19T03:03:34.111Z,77.12
2023-04-19T03:04:34.097Z,77.22
2023-04-19T03:05:34.039Z,77.29
2023-04-19T03:06:34.075Z,77.60
2023-04-19T03:07:34.043Z,77.43
2023-04-19T03:08:34.006Z,77.95
2023-04-19T03:09:34.017Z,77.95
2023-04-19T03:10:33.989Z,78.16
2023-04-19T03:11:34.017Z,78.26
2023-04-19T03:12:33.967Z,78.67
2023-04-19T03:13:33.955Z,78.36
2023-04-19T03:14:33.952Z,79.50
2023-04-19T03:15:34.014Z,79.30
2023-04-19T03:16:33.982Z,79.19
2023-04-19T03:17:33.959Z,78.78
2023-04-19T03:18:33.905Z,79.09
2023-04-19T03:19:33.901Z,79.30
2023-04-19T03:20:33.888Z,78.99
2023-04-19T03:21:33.907Z,79.54
2023-04-19T03:22:33.847Z,79.60
2023-04-19T03:23:33.836Z,79.64
2023-04-19T03:24:35.565Z,79.54
2023-04-19T03:25:34.798Z,79.54
2023-04-19T03:26:33.819Z,79.64
2023-04-19T03:27:33.811Z,79.85
2023-04-19T03:28:33.799Z,79.95
2023-04-19T03:29:33.770Z,79.85
2023-04-19T03:30:33.766Z,79.95
2023-04-19T03:31:33.881Z,79.85
2023-04-19T03:32:33.816Z,79.74
2023-04-19T03:33:33.742Z,80.47
2023-04-19T03:34:33.752Z,80.26
2023-04-19T03:35:33.704Z,80.47
2023-04-19T03:36:33.692Z,80.47
2023-04-19T03:37:33.733Z,80.16
2023-04-19T03:38:33.670Z,80.36
2023-04-19T03:39:33.650Z,81.20
2023-04-19T03:40:33.648Z,81.09
2023-04-19T03:41:33.643Z,81.02
2023-04-19T03:42:33.640Z,81.02
2023-04-19T03:43:33.677Z,81.09
2023-04-19T03:44:33.607Z,80.78
2023-04-19T03:45:33.588Z,80.88
2023-04-19T03:46:33.637Z,81.09
2023-04-19T03:47:33.606Z,81.51
2023-04-19T03:48:33.563Z,81.30
2023-04-19T03:49:33.538Z,81.51
2023-04-19T03:50:33.530Z,81.61
2023-04-19T03:51:33.526Z,82.23
2023-04-19T03:52:33.512Z,82.17
2023-04-19T03:53:33.518Z,82.23
2023-04-19T03:54:33.489Z,82.27
2023-04-19T03:55:33.489Z,82.34
2023-04-19T03:56:33.524Z,82.75
2023-04-19T03:57:33.474Z,82.86
2023-04-19T03:58:33.497Z,82.89
2023-04-19T03:59:33.510Z,82.79
2023-04-19T04:00:33.424Z,83.31
2023-04-19T04:01:33.437Z,83.41
2023-04-19T04:02:33.534Z,83.41
2023-04-19T04:03:33.567Z,83.47
2023-04-19T04:04:33.588Z,83.20
2023-04-19T04:05:33.415Z,83.62
2023-04-19T04:06:33.354Z,83.83
2023-04-19T04:07:33.350Z,83.51
2023-04-19T04:08:33.352Z,83.83
2023-04-19T04:09:33.318Z,83.93
2023-04-19T04:10:33.327Z,83.93
2023-04-19T04:11:33.301Z,84.23
2023-04-19T04:12:33.291Z,84.34
2023-04-19T04:13:33.284Z,83.93
2023-04-19T04:14:33.279Z,84.23
2023-04-19T04:15:33.417Z,84.55
2023-04-19T04:16:33.311Z,84.13
2023-04-19T04:17:33.260Z,84.34
2023-04-19T04:18:33.245Z,84.13
2023-04-19T04:19:33.212Z,84.23
2023-04-19T04:20:33.203Z,84.96
2023-04-19T04:21:33.212Z,84.75
2023-04-19T04:22:33.185Z,84.86
2023-04-19T04:23:33.186Z,84.44
2023-04-19T04:24:33.158Z,85.48
2023-04-19T04:25:33.199Z,85.17
2023-04-19T04:26:33.134Z,85.34
2023-04-19T04:27:33.159Z,84.75
2023-04-19T04:28:33.116Z,84.72
2023-04-19T04:29:33.181Z,84.65
2023-04-19T04:30:33.102Z,85.65
2023-04-19T04:31:33.138Z,84.51
2023-04-19T04:32:33.121Z,85.44
2023-04-19T04:33:33.098Z,85.24
2023-04-19T04:34:33.070Z,85.58
2023-04-19T04:35:33.073Z,85.27
2023-04-19T04:36:33.046Z,85.03
2023-04-19T04:37:33.034Z,85.69
2023-04-19T04:38:33.074Z,85.55
2023-04-19T04:39:33.011Z,85.44
2023-04-19T04:40:33.004Z,85.65
2023-04-19T04:41:33.027Z,85.34
2023-04-19T04:42:32.982Z,85.24
2023-04-19T04:43:32.971Z,85.13
2023-04-19T04:44:32.978Z,85.96
2023-04-19T04:45:32.996Z,85.55
2023-04-19T04:46:32.943Z,86.07
2023-04-19T04:47:33.016Z,86.27
2023-04-19T04:48:32.950Z,86.47
2023-04-19T04:49:32.952Z,86.68
2023-04-19T04:50:32.901Z,86.47
2023-04-19T04:51:39.914Z,86.47
2023-04-19T04:52:32.871Z,86.58
2023-04-19T04:53:32.882Z,86.47
2023-04-19T04:54:32.852Z,86.37
2023-04-19T04:55:32.843Z,86.27
2023-04-19T04:56:32.882Z,86.37
2023-04-19T04:57:32.826Z,86.37
2023-04-19T04:58:32.824Z,86.44
2023-04-19T04:59:32.813Z,86.27
2023-04-19T05:00:32.798Z,86.44
2023-04-19T05:01:32.869Z,86.23
2023-04-19T05:02:32.939Z,86.23
2023-04-19T05:03:32.815Z,86.33
2023-04-19T05:04:32.791Z,86.33
2023-04-19T05:05:32.731Z,86.13
2023-04-19T05:06:32.719Z,86.23
2023-04-19T05:07:32.724Z,86.44
2023-04-19T05:08:32.702Z,86.44
2023-04-19T05:09:32.774Z,86.23
2023-04-19T05:10:32.685Z,86.33
2023-04-19T05:11:32.664Z,86.44
2023-04-19T05:12:32.653Z,86.40
2023-04-19T05:13:32.639Z,86.71
2023-04-19T05:14:32.645Z,86.65
2023-04-19T05:15:32.629Z,86.54
2023-04-19T05:16:32.638Z,86.60
2023-04-19T05:17:33.333Z,86.09
2023-04-19T05:18:32.586Z,86.29
2023-04-19T05:19:32.606Z,86.09
2023-04-19T05:20:32.566Z,86.29
2023-04-19T05:21:32.559Z,86.60
2023-04-19T05:22:32.543Z,86.09
2023-04-19T05:23:32.532Z,86.09
2023-04-19T05:24:32.542Z,86.60
2023-04-19T05:25:32.506Z,86.40
2023-04-19T05:26:32.513Z,85.78
2023-04-19T05:27:32.494Z,86.15
2023-04-19T05:28:32.485Z,86.09
2023-04-19T05:29:32.483Z,85.32
2023-04-19T05:30:32.486Z,85.78
2023-04-19T05:31:32.558Z,85.05
2023-04-19T05:32:32.482Z,85.47
2023-04-19T05:33:32.435Z,85.32
2023-04-19T05:34:32.429Z,84.70
2023-04-19T05:35:32.493Z,85.32
2023-04-19T05:36:32.402Z,84.97
2023-04-19T05:37:32.391Z,84.05
2023-04-19T05:38:32.364Z,84.05
2023-04-19T05:39:32.370Z,84.15
2023-04-19T05:40:32.343Z,84.45
2023-04-19T05:41:32.334Z,84.45
2023-04-19T05:42:32.321Z,84.42
2023-04-19T05:43:32.318Z,83.76
2023-04-19T05:44:32.313Z,82.97
2023-04-19T05:45:32.293Z,83.39
2023-04-19T05:46:32.402Z,83.14
2023-04-19T05:47:32.318Z,82.83
2023-04-19T05:48:32.255Z,82.83
2023-04-19T05:49:32.275Z,82.38
2023-04-19T05:50:32.235Z,81.96
2023-04-19T05:51:32.247Z,81.41
2023-04-19T05:52:32.212Z,81.21
2023-04-19T05:53:32.202Z,81.10
2023-04-19T05:54:32.212Z,80.18
2023-04-19T05:55:32.180Z,80.24
2023-04-19T05:56:32.172Z,79.72
2023-04-19T05:57:32.172Z,79.48
2023-04-19T05:58:32.150Z,78.66
2023-04-19T05:59:32.159Z,78.72
2023-04-19T06:00:32.125Z,77.66
2023-04-19T06:01:32.116Z,76.97
2023-04-19T06:02:32.229Z,77.48
2023-04-19T06:03:32.474Z,77.90
2023-04-19T06:04:32.293Z,77.86
2023-04-19T06:05:32.093Z,77.11
2023-04-19T06:06:32.058Z,76.35
2023-04-19T06:07:34.527Z,76.66
2023-04-19T06:08:33.036Z,75.29
2023-04-19T06:09:32.044Z,74.63
2023-04-19T06:10:44.512Z,74.43
2023-04-19T06:11:42.713Z,74.05
2023-04-19T06:12:32.988Z,73.13
2023-04-19T06:13:31.979Z,71.97
2023-04-19T06:14:31.993Z,71.62
2023-04-19T06:15:31.959Z,71.08
2023-04-19T06:16:32.009Z,70.32
2023-04-19T06:17:31.972Z,69.78
2023-04-19T06:18:31.936Z,68.93
2023-04-19T06:19:31.921Z,69.00
2023-04-19T06:20:31.902Z,66.92
2023-04-19T06:21:31.887Z,66.17
2023-04-19T06:22:31.879Z,65.63
2023-04-19T06:23:31.983Z,65.37
2023-04-19T06:24:33.705Z,63.93
2023-04-19T06:25:31.858Z,63.73
2023-04-19T06:26:31.834Z,63.19
2023-04-19T06:27:31.825Z,63.06
2023-04-19T06:28:31.825Z,62.04
2023-04-19T06:29:31.801Z,62.01
2023-04-19T06:30:31.789Z,61.66
2023-04-19T06:31:31.809Z,62.37
2023-04-19T06:32:31.852Z,61.90
2023-04-19T06:33:31.764Z,62.24
2023-04-19T06:34:31.812Z,61.16
2023-04-19T06:35:31.743Z,59.25
2023-04-19T06:36:31.736Z,57.49
2023-04-19T06:37:31.710Z,56.65
2023-04-19T06:38:31.700Z,56.90
2023-04-19T06:39:31.961Z,58.05
2023-04-19T06:40:31.689Z,57.90
2023-04-19T06:41:31.681Z,56.21
2023-04-19T06:42:31.657Z,57.29
2023-04-19T06:43:31.645Z,56.29
2023-04-19T06:44:31.630Z,55.20
2023-04-19T06:45:31.704Z,52.76
2023-04-19T06:46:31.655Z,52.97
2023-04-19T06:47:33.474Z,52.59
2023-04-19T06:48:31.592Z,50.49
2023-04-19T06:49:31.585Z,48.82
2023-04-19T06:50:31.567Z,48.88
2023-04-19T06:51:31.570Z,47.82
2023-04-19T06:52:31.570Z,46.69
2023-04-19T06:53:31.555Z,46.13
2023-04-19T06:54:31.520Z,47.34
2023-04-19T06:55:31.541Z,47.16
2023-04-19T06:56:31.496Z,47.47
2023-04-19T06:57:31.506Z,47.36
2023-04-19T06:58:32.784Z,47.26
2023-04-19T06:59:31.469Z,46.67
2023-04-19T07:00:31.462Z,44.87
2023-04-19T07:01:31.553Z,42.32
2023-04-19T07:02:31.604Z,41.59
2023-04-19T07:03:31.609Z,40.43
2023-04-19T07:04:31.601Z,40.11
2023-04-19T07:05:31.437Z,39.05
2023-04-19T07:06:31.385Z,38.35
2023-04-19T07:07:31.529Z,38.01
2023-04-19T07:08:46.491Z,37.95
2023-04-19T07:09:32.386Z,37.41
2023-04-19T07:10:31.345Z,36.79
2023-04-19T07:11:31.378Z,36.56
2023-04-19T07:12:31.337Z,35.91
2023-04-19T07:13:31.305Z,35.36
2023-04-19T07:14:31.296Z,35.19
2023-04-19T07:15:31.303Z,35.88
2023-04-19T07:16:31.369Z,35.44
2023-04-19T07:17:31.301Z,34.01
2023-04-19T07:18:31.252Z,33.78
2023-04-19T07:19:31.242Z,33.35
2023-04-19T07:20:31.229Z,32.27
2023-04-19T07:21:31.234Z,32.75
2023-04-19T07:22:31.383Z,31.45
2023-04-19T07:23:31.194Z,31.96
2023-04-19T07:24:31.196Z,31.91
2023-04-19T07:25:31.177Z,31.45
2023-04-19T07:26:31.181Z,30.13
2023-04-19T07:27:31.179Z,29.44
2023-04-19T07:28:31.138Z,29.02
2023-04-19T07:29:31.131Z,27.81
2023-04-19T07:30:31.115Z,28.08
2023-04-19T07:31:31.394Z,27.49
2023-04-19T07:32:31.115Z,27.60
2023-04-19T07:33:31.280Z,27.49
2023-04-19T07:34:31.073Z,27.07
2023-04-19T07:35:31.120Z,26.39
2023-04-19T07:36:31.051Z,26.81
2023-04-19T07:37:31.073Z,27.19
2023-04-19T07:38:31.069Z,27.01
2023-04-19T07:39:31.030Z,27.67
2023-04-19T07:40:31.148Z,29.21
2023-04-19T07:41:31.051Z,29.17
2023-04-19T07:42:30.987Z,28.15
2023-04-19T07:43:31.141Z,28.62
2023-04-19T07:44:30.969Z,26.20
2023-04-19T07:45:30.960Z,26.78
2023-04-19T07:46:30.989Z,26.67
2023-04-19T07:47:30.978Z,26.38
2023-04-19T07:48:30.920Z,25.40
2023-04-19T07:49:30.910Z,26.18
2023-04-19T07:50:30.910Z,26.01
2023-04-19T07:51:30.902Z,26.12
2023-04-19T07:52:30.883Z,26.95
2023-04-19T07:53:30.863Z,27.33
2023-04-19T07:54:30.854Z,26.10
2023-04-19T07:55:30.865Z,26.81
2023-04-19T07:56:30.838Z,25.99
2023-04-19T07:57:30.828Z,27.03
2023-04-19T07:58:30.812Z,25.86
2023-04-19T07:59:30.837Z,26.54
2023-04-19T08:00:30.816Z,25.42
2023-04-19T08:01:32.720Z,25.39
2023-04-19T08:02:30.925Z,24.55
2023-04-19T08:03:30.986Z,23.64
2023-04-19T08:04:31.114Z,23.64
2023-04-19T08:05:30.767Z,22.95
2023-04-19T08:06:30.825Z,23.05
2023-04-19T08:07:30.725Z,23.05
2023-04-19T08:08:30.698Z,22.86
2023-04-19T08:09:30.737Z,24.63
2023-04-19T08:10:30.691Z,25.98
2023-04-19T08:11:30.699Z,26.27
2023-04-19T08:12:38.352Z,26.37
2023-04-19T08:13:31.662Z,25.92
2023-04-19T08:14:35.406Z,25.02
2023-04-19T08:16:59.145Z,28.27
2023-04-19T08:17:40.091Z,29.10
2023-04-19T08:18:31.642Z,28.23
2023-04-19T08:19:30.588Z,28.11
2023-04-19T08:20:30.593Z,27.39
2023-04-19T08:21:40.117Z,25.87
2023-04-19T08:22:31.560Z,26.28
2023-04-19T08:23:41.302Z,27.57
2023-04-19T08:24:31.542Z,25.16
2023-04-19T08:25:30.540Z,26.48
2023-04-19T08:26:30.533Z,25.85
2023-04-19T08:27:30.509Z,25.10
2023-04-19T08:28:30.496Z,24.58
2023-04-19T08:29:30.489Z,23.38
2023-04-19T08:30:30.517Z,23.77
2023-04-19T08:31:30.601Z,23.74
2023-04-19T08:32:31.565Z,23.21
2023-04-19T08:33:30.445Z,21.84
2023-04-19T08:34:30.427Z,22.46
2023-04-19T08:35:30.445Z,24.48
2023-04-19T08:36:39.151Z,24.79
2023-04-19T08:37:31.404Z,24.63
2023-04-19T08:38:30.395Z,25.87
2023-04-19T08:39:33.506Z,25.86
2023-04-19T08:40:30.377Z,27.56
2023-04-19T08:41:30.378Z,30.79
2023-04-19T08:42:36.254Z,31.93
2023-04-19T08:43:31.339Z,31.78
2023-04-19T08:44:36.437Z,31.34
2023-04-19T08:45:31.328Z,30.46
2023-04-19T08:46:30.359Z,28.22
2023-04-19T08:47:33.550Z,28.42
2023-04-19T08:48:30.295Z,27.39
2023-04-19T08:49:30.868Z,26.93
2023-04-19T08:50:34.649Z,28.77
2023-04-19T08:51:31.281Z,29.60
2023-04-19T08:52:30.244Z,31.37
2023-04-19T08:53:30.236Z,31.99
2023-04-19T08:54:30.224Z,35.41
2023-04-19T08:55:30.214Z,36.96
2023-04-19T08:56:35.682Z,37.16
2023-04-19T08:57:31.184Z,37.68
2023-04-19T08:59:30.167Z,34.09
2023-04-19T09:00:30.171Z,33.98
2023-04-19T09:01:34.976Z,33.74
2023-04-19T09:02:31.341Z,32.09
2023-04-19T09:03:30.316Z,31.19
2023-04-19T09:04:36.964Z,29.13
2023-04-19T09:05:31.367Z,27.68
2023-04-19T09:06:30.237Z,27.91
2023-04-19T09:07:30.076Z,24.56
2023-04-19T09:08:30.122Z,24.01
2023-04-19T09:10:30.047Z,24.20
2023-04-19T09:11:30.050Z,25.05
2023-04-19T09:12:30.027Z,27.64
2023-04-19T09:13:30.012Z,29.72
2023-04-19T09:14:30.056Z,30.80
2023-04-19T09:15:30.008Z,27.71
2023-04-19T09:16:30.011Z,26.04
2023-04-19T09:17:30.046Z,25.63
2023-04-19T09:18:32.143Z,25.85
2023-04-19T09:19:30.290Z,24.62
2023-04-19T09:20:29.939Z,25.46
2023-04-19T09:21:29.947Z,26.15
2023-04-19T09:22:30.438Z,26.43
2023-04-19T09:23:29.912Z,29.22
2023-04-19T09:24:41.488Z,29.71
2023-04-19T09:25:49.261Z,28.27
2023-04-19T09:26:30.930Z,27.96
2023-04-19T09:27:29.901Z,28.56
2023-04-19T09:28:29.864Z,27.58
2023-04-19T09:29:29.846Z,26.01
2023-04-19T09:30:33.942Z,24.09
2023-04-19T09:31:48.132Z,26.86
2023-04-19T09:32:30.917Z,29.71
2023-04-19T09:33:29.930Z,27.95
2023-04-19T09:34:29.792Z,27.33
2023-04-19T09:35:29.809Z,28.06
2023-04-19T09:36:29.768Z,29.93
2023-04-19T09:38:29.748Z,32.77
2023-04-19T09:39:29.740Z,33.26
2023-04-19T09:40:29.745Z,31.37
2023-04-19T09:41:30.422Z,29.68
2023-04-19T09:42:50.966Z,27.88
2023-04-19T09:43:58.151Z,26.21
2023-04-19T09:45:31.134Z,24.01
2023-04-19T09:46:29.704Z,24.69
2023-04-19T09:47:29.662Z,24.56
2023-04-19T09:48:29.655Z,23.25
2023-04-19T09:49:41.686Z,22.73
2023-04-19T09:50:31.690Z,23.20
2023-04-19T09:51:29.718Z,21.87
2023-04-19T09:52:29.602Z,21.08
2023-04-19T09:53:29.605Z,21.92
2023-04-19T09:54:29.587Z,20.92
2023-04-19T09:55:33.387Z,21.28
2023-04-19T09:56:30.560Z,22.38
2023-04-19T09:57:29.555Z,23.97
2023-04-19T09:58:41.708Z,22.75
2023-04-19T09:59:30.546Z,22.56
2023-04-19T10:00:33.547Z,22.75
2023-04-19T10:01:30.534Z,22.46
2023-04-19T10:02:29.784Z,24.32
2023-04-19T10:03:29.640Z,24.82
2023-04-19T10:04:44.022Z,24.61
2023-04-19T10:05:30.574Z,24.63
2023-04-19T10:06:42.416Z,24.90
2023-04-19T10:07:31.297Z,24.63
2023-04-19T10:08:29.446Z,24.67
2023-04-19T10:09:29.461Z,25.45
2023-04-19T10:11:29.412Z,28.11
2023-04-19T10:13:30.437Z,27.52
2023-04-19T10:14:29.382Z,28.38
2023-04-19T10:15:33.878Z,28.57
2023-04-19T10:16:30.409Z,28.02
2023-04-19T10:17:29.401Z,26.35
2023-04-19T10:18:29.357Z,24.50
2023-04-19T10:19:29.328Z,24.08
2023-04-19T10:20:29.393Z,23.66
2023-04-19T10:21:29.328Z,24.10
2023-04-19T10:22:29.300Z,24.68
2023-04-19T10:23:29.426Z,26.81
2023-04-19T10:24:29.311Z,25.85
2023-04-19T10:25:29.279Z,24.97
2023-04-19T10:26:29.349Z,24.52
2023-04-19T10:27:29.251Z,25.34
2023-04-19T10:28:29.263Z,25.54
2023-04-19T10:29:29.226Z,25.60
2023-04-19T10:30:29.231Z,23.76
2023-04-19T10:31:29.242Z,22.94
2023-04-19T10:32:29.204Z,21.75
2023-04-19T10:33:29.181Z,21.72
2023-04-19T10:34:29.177Z,22.64
2023-04-19T10:35:29.176Z,22.41
2023-04-19T10:36:29.176Z,23.55
2023-04-19T10:37:29.153Z,24.84
2023-04-19T10:38:29.137Z,24.72
2023-04-19T10:39:29.144Z,24.77
2023-04-19T10:40:29.131Z,27.36
2023-04-19T10:41:29.102Z,28.08
2023-04-19T10:42:29.095Z,25.02
2023-04-19T10:43:29.080Z,24.19
2023-04-19T10:44:29.073Z,25.39
2023-04-19T10:45:29.121Z,27.59
2023-04-19T10:46:29.280Z,26.46
2023-04-19T10:47:29.980Z,26.17
2023-04-19T10:48:29.039Z,25.85
2023-04-19T10:49:29.034Z,25.33
2023-04-19T10:50:29.013Z,25.20
2023-04-19T10:51:36.077Z,30.46
2023-04-19T10:52:28.992Z,30.58
2023-04-19T10:53:28.980Z,32.08
2023-04-19T10:54:28.977Z,29.78
2023-04-19T10:55:29.259Z,28.93
2023-04-19T10:56:28.967Z,28.17
2023-04-19T10:57:28.935Z,29.77
2023-04-19T10:58:28.927Z,29.31
2023-04-19T10:59:28.913Z,31.07
2023-04-19T11:00:28.904Z,32.44
2023-04-19T11:01:28.939Z,33.81
2023-04-19T11:02:29.075Z,34.51
2023-04-19T11:03:28.951Z,33.76
2023-04-19T11:04:28.951Z,33.09
2023-04-19T11:05:28.852Z,31.70
2023-04-19T11:06:28.901Z,34.11
2023-04-19T11:07:28.834Z,34.99
2023-04-19T11:08:28.820Z,38.52
2023-04-19T11:09:28.824Z,39.75
2023-04-19T11:10:28.810Z,39.37
2023-04-19T11:11:28.826Z,39.21
2023-04-19T11:12:28.792Z,39.05
2023-04-19T11:13:28.777Z,36.65
2023-04-19T11:14:28.893Z,34.67
2023-04-19T11:15:29.496Z,33.53
2023-04-19T11:16:42.369Z,33.51
2023-04-19T11:17:29.770Z,33.78
2023-04-19T11:18:29.063Z,36.13
2023-04-19T11:19:28.708Z,34.71
2023-04-19T11:20:28.725Z,35.41
2023-04-19T11:21:30.392Z,34.39
2023-04-19T11:22:28.695Z,34.17
2023-04-19T11:23:28.656Z,35.10
2023-04-19T11:24:28.648Z,35.06
2023-04-19T11:25:28.634Z,36.69
2023-04-19T11:26:28.633Z,36.80
2023-04-19T11:27:28.720Z,37.01
2023-04-19T11:28:28.603Z,38.48
2023-04-19T11:29:28.593Z,38.52
2023-04-19T11:30:28.609Z,39.37
2023-04-19T11:31:28.648Z,39.91
2023-04-19T11:32:28.583Z,40.92
2023-04-19T11:33:28.544Z,40.52
2023-04-19T11:34:28.544Z,40.31
2023-04-19T11:35:28.600Z,40.11
2023-04-19T11:36:28.516Z,41.10
2023-04-19T11:37:28.508Z,40.46
2023-04-19T11:38:28.498Z,38.30
2023-04-19T11:39:28.526Z,39.65
2023-04-19T11:40:28.501Z,39.87
2023-04-19T11:41:28.478Z,40.52
2023-04-19T11:42:28.476Z,41.35
2023-04-19T11:43:28.455Z,40.94
2023-04-19T11:44:28.433Z,42.27
2023-04-19T11:45:31.171Z,42.49
2023-04-19T11:46:28.419Z,43.30
2023-04-19T11:47:28.432Z,42.49
2023-04-19T11:48:28.388Z,43.30
2023-04-19T11:49:28.380Z,42.60
2023-04-19T11:50:28.378Z,42.58
2023-04-19T11:51:28.354Z,42.58
2023-04-19T11:52:28.345Z,42.68
2023-04-19T11:53:28.347Z,42.35
2023-04-19T11:54:28.338Z,42.60
2023-04-19T11:55:28.359Z,42.47
2023-04-19T11:56:28.304Z,41.85
2023-04-19T11:57:28.292Z,41.24
2023-04-19T11:58:28.292Z,40.94
2023-04-19T11:59:28.329Z,41.12
2023-04-19T12:00:28.260Z,39.89
2023-04-19T12:01:28.243Z,40.80
2023-04-19T12:02:28.434Z,40.48
2023-04-19T12:03:29.265Z,39.55
2023-04-19T12:04:28.394Z,38.66
2023-04-19T12:05:28.373Z,39.77
2023-04-19T12:06:28.213Z,38.76
2023-04-19T12:07:28.185Z,39.70
2023-04-19T12:08:28.182Z,39.30
2023-04-19T12:09:28.159Z,38.86
2023-04-19T12:10:28.164Z,38.75
2023-04-19T12:11:28.136Z,39.06
2023-04-19T12:12:28.141Z,38.86
2023-04-19T12:13:28.118Z,39.53
2023-04-19T12:14:28.114Z,38.81
2023-04-19T12:15:28.885Z,38.28
2023-04-19T12:16:28.122Z,38.40
2023-04-19T12:17:28.144Z,38.73
2023-04-19T12:18:28.124Z,39.04
2023-04-19T12:19:28.066Z,39.65
2023-04-19T12:20:28.075Z,39.48
2023-04-19T12:21:28.020Z,40.21
2023-04-19T12:22:28.012Z,40.03
2023-04-19T12:23:28.005Z,40.27
2023-04-19T12:24:28.012Z,41.40
2023-04-19T12:25:27.995Z,41.69
2023-04-19T12:26:27.988Z,41.93
2023-04-19T12:27:27.963Z,42.74
2023-04-19T12:28:27.947Z,43.26
2023-04-19T12:29:28.224Z,42.94
2023-04-19T12:30:27.936Z,43.02
2023-04-19T12:31:28.108Z,42.31
2023-04-19T12:32:27.955Z,43.02
2023-04-19T12:33:27.888Z,42.90
2023-04-19T12:34:27.873Z,42.40
2023-04-19T12:35:27.879Z,42.47
2023-04-19T12:36:27.854Z,41.16
2023-04-19T12:37:27.840Z,42.29
2023-04-19T12:38:27.844Z,43.41
2023-04-19T12:39:27.827Z,42.17
2023-04-19T12:40:27.843Z,42.35
2023-04-19T12:41:27.799Z,41.83
2023-04-19T12:42:27.793Z,41.10
2023-04-19T12:43:27.780Z,41.93
2023-04-19T12:44:27.763Z,42.86
2023-04-19T12:45:27.777Z,42.47
2023-04-19T12:46:27.835Z,42.25
2023-04-19T12:47:27.909Z,41.22
2023-04-19T12:48:27.728Z,40.70
2023-04-19T12:49:27.710Z,42.40
2023-04-19T12:50:27.719Z,42.49
2023-04-19T12:51:27.684Z,42.80
2023-04-19T12:52:27.682Z,42.27
2023-04-19T12:53:27.664Z,42.05
2023-04-19T12:54:27.653Z,41.22
2023-04-19T12:55:27.656Z,40.94
2023-04-19T12:56:27.661Z,41.14
2023-04-19T12:57:27.621Z,41.22
2023-04-19T12:58:27.664Z,40.70
2023-04-19T12:59:27.596Z,40.61